sensor_id;sensor_type;location;lat;lon;timestamp;P1;durP1;ratioP1;P2;durP2;ratioP2
24857;SDS011;12935;50.782;6.074;2022-09-09T00:00:47;29.80;;;9.97;;
24857;SDS011;12935;50.782;6.074;2022-09-09T00:04:03;31.23;;;10.33;;
24857;SDS011;12935;50.782;6.074;2022-09-09T00:09:27;32.07;;;9.60;;
24857;SDS011;12935;50.782;6.074;2022-09-09T00:11:56;19.77;;;8.83;;
24857;SDS011;12935;50.782;6.074;2022-09-09T00:14:48;26.90;;;9.00;;
24857;SDS011;12935;50.782;6.074;2022-09-09T00:17:24;26.73;;;9.17;;
24857;SDS011;12935;50.782;6.074;2022-09-09T00:20:13;37.07;;;10.33;;
24857;SDS011;12935;50.782;6.074;2022-09-09T00:22:49;30.23;;;9.87;;
24857;SDS011;12935;50.782;6.074;2022-09-09T00:25:23;30.80;;;10.63;;
24857;SDS011;12935;50.782;6.074;2022-09-09T00:27:55;24.90;;;8.83;;
24857;SDS011;12935;50.782;6.074;2022-09-09T00:30:22;30.70;;;10.00;;
24857;SDS011;12935;50.782;6.074;2022-09-09T00:32:53;38.00;;;10.70;;
24857;SDS011;12935;50.782;6.074;2022-09-09T00:35:30;24.70;;;8.80;;
24857;SDS011;12935;50.782;6.074;2022-09-09T00:38:03;53.73;;;11.93;;
24857;SDS011;12935;50.782;6.074;2022-09-09T00:40:37;37.93;;;10.20;;
24857;SDS011;12935;50.782;6.074;2022-09-09T00:43:27;34.20;;;9.90;;
24857;SDS011;12935;50.782;6.074;2022-09-09T00:49:04;23.23;;;9.30;;
24857;SDS011;12935;50.782;6.074;2022-09-09T00:51:46;28.20;;;9.53;;
24857;SDS011;12935;50.782;6.074;2022-09-09T00:57:23;28.30;;;9.57;;
24857;SDS011;12935;50.782;6.074;2022-09-09T01:00:29;23.00;;;9.20;;
24857;SDS011;12935;50.782;6.074;2022-09-09T01:05:44;27.13;;;9.20;;
24857;SDS011;12935;50.782;6.074;2022-09-09T01:08:53;22.03;;;8.80;;
24857;SDS011;12935;50.782;6.074;2022-09-09T01:11:22;47.80;;;11.13;;
24857;SDS011;12935;50.782;6.074;2022-09-09T01:14:02;27.80;;;8.90;;
24857;SDS011;12935;50.782;6.074;2022-09-09T01:16:36;32.33;;;9.70;;
24857;SDS011;12935;50.782;6.074;2022-09-09T01:19:02;24.10;;;8.83;;
24857;SDS011;12935;50.782;6.074;2022-09-09T01:25:19;29.00;;;10.00;;
24857;SDS011;12935;50.782;6.074;2022-09-09T01:27:39;25.37;;;9.80;;
24857;SDS011;12935;50.782;6.074;2022-09-09T01:30:09;31.57;;;9.73;;
24857;SDS011;12935;50.782;6.074;2022-09-09T01:37:54;21.83;;;8.90;;
24857;SDS011;12935;50.782;6.074;2022-09-09T01:40:19;22.03;;;8.30;;
24857;SDS011;12935;50.782;6.074;2022-09-09T01:42:44;25.23;;;10.17;;
24857;SDS011;12935;50.782;6.074;2022-09-09T01:45:10;25.77;;;8.70;;
24857;SDS011;12935;50.782;6.074;2022-09-09T01:47:35;37.30;;;10.43;;
24857;SDS011;12935;50.782;6.074;2022-09-09T01:50:01;41.40;;;10.50;;
24857;SDS011;12935;50.782;6.074;2022-09-09T01:52:28;55.70;;;12.40;;
24857;SDS011;12935;50.782;6.074;2022-09-09T01:54:54;25.30;;;9.77;;
24857;SDS011;12935;50.782;6.074;2022-09-09T01:57:22;26.40;;;9.43;;
24857;SDS011;12935;50.782;6.074;2022-09-09T02:02:33;36.03;;;10.20;;
24857;SDS011;12935;50.782;6.074;2022-09-09T02:07:55;24.27;;;9.53;;
24857;SDS011;12935;50.782;6.074;2022-09-09T02:10:29;35.27;;;10.17;;
24857;SDS011;12935;50.782;6.074;2022-09-09T02:13:11;27.37;;;9.60;;
24857;SDS011;12935;50.782;6.074;2022-09-09T02:18:30;25.63;;;9.37;;
24857;SDS011;12935;50.782;6.074;2022-09-09T02:20:59;51.57;;;12.00;;
24857;SDS011;12935;50.782;6.074;2022-09-09T02:23:25;23.23;;;8.90;;
24857;SDS011;12935;50.782;6.074;2022-09-09T02:25:52;31.07;;;10.00;;
24857;SDS011;12935;50.782;6.074;2022-09-09T02:28:20;19.73;;;9.00;;
24857;SDS011;12935;50.782;6.074;2022-09-09T02:30:50;24.90;;;9.27;;
24857;SDS011;12935;50.782;6.074;2022-09-09T02:33:20;32.10;;;9.87;;
24857;SDS011;12935;50.782;6.074;2022-09-09T02:35:49;35.63;;;9.73;;
24857;SDS011;12935;50.782;6.074;2022-09-09T02:38:17;45.43;;;11.90;;
24857;SDS011;12935;50.782;6.074;2022-09-09T02:40:46;30.77;;;9.93;;
24857;SDS011;12935;50.782;6.074;2022-09-09T02:43:11;28.07;;;9.73;;
24857;SDS011;12935;50.782;6.074;2022-09-09T02:45:48;40.90;;;9.63;;
24857;SDS011;12935;50.782;6.074;2022-09-09T02:48:23;37.43;;;10.47;;
24857;SDS011;12935;50.782;6.074;2022-09-09T02:53:53;31.03;;;11.00;;
24857;SDS011;12935;50.782;6.074;2022-09-09T02:56:16;36.00;;;10.80;;
24857;SDS011;12935;50.782;6.074;2022-09-09T02:58:45;51.50;;;10.70;;
24857;SDS011;12935;50.782;6.074;2022-09-09T03:01:11;39.50;;;10.90;;
24857;SDS011;12935;50.782;6.074;2022-09-09T03:03:36;31.27;;;10.33;;
24857;SDS011;12935;50.782;6.074;2022-09-09T03:06:02;25.67;;;9.03;;
24857;SDS011;12935;50.782;6.074;2022-09-09T03:08:27;20.97;;;8.77;;
24857;SDS011;12935;50.782;6.074;2022-09-09T03:10:57;29.67;;;10.03;;
24857;SDS011;12935;50.782;6.074;2022-09-09T03:13:23;29.50;;;10.40;;
24857;SDS011;12935;50.782;6.074;2022-09-09T03:15:50;28.67;;;10.03;;
24857;SDS011;12935;50.782;6.074;2022-09-09T03:18:16;38.63;;;10.50;;
24857;SDS011;12935;50.782;6.074;2022-09-09T03:20:41;21.93;;;9.10;;
24857;SDS011;12935;50.782;6.074;2022-09-09T03:23:07;38.60;;;10.37;;
24857;SDS011;12935;50.782;6.074;2022-09-09T03:25:33;28.77;;;9.53;;
24857;SDS011;12935;50.782;6.074;2022-09-09T03:27:58;27.27;;;9.90;;
24857;SDS011;12935;50.782;6.074;2022-09-09T03:30:24;28.17;;;9.53;;
24857;SDS011;12935;50.782;6.074;2022-09-09T03:32:51;29.83;;;10.23;;
24857;SDS011;12935;50.782;6.074;2022-09-09T03:35:17;41.57;;;10.63;;
24857;SDS011;12935;50.782;6.074;2022-09-09T03:37:42;25.67;;;10.77;;
24857;SDS011;12935;50.782;6.074;2022-09-09T03:40:08;30.80;;;9.60;;
24857;SDS011;12935;50.782;6.074;2022-09-09T03:42:37;24.17;;;9.10;;
24857;SDS011;12935;50.782;6.074;2022-09-09T03:45:03;27.03;;;9.70;;
24857;SDS011;12935;50.782;6.074;2022-09-09T03:47:30;41.97;;;11.67;;
24857;SDS011;12935;50.782;6.074;2022-09-09T03:49:55;34.13;;;10.70;;
24857;SDS011;12935;50.782;6.074;2022-09-09T03:52:20;74.03;;;14.77;;
24857;SDS011;12935;50.782;6.074;2022-09-09T03:54:49;32.30;;;10.60;;
24857;SDS011;12935;50.782;6.074;2022-09-09T03:57:15;21.53;;;8.33;;
24857;SDS011;12935;50.782;6.074;2022-09-09T03:59:41;30.10;;;9.63;;
24857;SDS011;12935;50.782;6.074;2022-09-09T04:02:07;49.47;;;10.77;;
24857;SDS011;12935;50.782;6.074;2022-09-09T04:04:32;24.27;;;8.80;;
24857;SDS011;12935;50.782;6.074;2022-09-09T04:06:57;38.70;;;11.57;;
24857;SDS011;12935;50.782;6.074;2022-09-09T04:09:22;28.23;;;9.67;;
24857;SDS011;12935;50.782;6.074;2022-09-09T04:11:48;30.37;;;10.13;;
24857;SDS011;12935;50.782;6.074;2022-09-09T04:14:14;24.13;;;9.77;;
24857;SDS011;12935;50.782;6.074;2022-09-09T04:16:39;26.80;;;9.60;;
24857;SDS011;12935;50.782;6.074;2022-09-09T04:19:08;26.60;;;9.20;;
24857;SDS011;12935;50.782;6.074;2022-09-09T04:21:33;25.43;;;9.13;;
24857;SDS011;12935;50.782;6.074;2022-09-09T04:23:58;24.87;;;9.03;;
24857;SDS011;12935;50.782;6.074;2022-09-09T04:26:24;38.17;;;9.70;;
24857;SDS011;12935;50.782;6.074;2022-09-09T04:28:49;38.77;;;10.93;;
24857;SDS011;12935;50.782;6.074;2022-09-09T04:31:19;39.87;;;11.33;;
24857;SDS011;12935;50.782;6.074;2022-09-09T04:33:47;37.43;;;11.23;;
24857;SDS011;12935;50.782;6.074;2022-09-09T04:36:13;23.90;;;9.93;;
24857;SDS011;12935;50.782;6.074;2022-09-09T04:38:38;38.20;;;11.30;;
24857;SDS011;12935;50.782;6.074;2022-09-09T04:41:04;35.27;;;10.47;;
24857;SDS011;12935;50.782;6.074;2022-09-09T04:43:30;26.40;;;9.53;;
24857;SDS011;12935;50.782;6.074;2022-09-09T04:45:55;28.00;;;8.97;;
24857;SDS011;12935;50.782;6.074;2022-09-09T04:48:21;21.30;;;8.93;;
24857;SDS011;12935;50.782;6.074;2022-09-09T04:50:54;31.13;;;10.67;;
24857;SDS011;12935;50.782;6.074;2022-09-09T04:53:21;28.60;;;9.47;;
24857;SDS011;12935;50.782;6.074;2022-09-09T04:55:47;29.93;;;10.23;;
24857;SDS011;12935;50.782;6.074;2022-09-09T04:58:12;44.57;;;12.13;;
24857;SDS011;12935;50.782;6.074;2022-09-09T05:00:38;29.03;;;10.37;;
24857;SDS011;12935;50.782;6.074;2022-09-09T05:03:04;30.80;;;10.23;;
24857;SDS011;12935;50.782;6.074;2022-09-09T05:05:30;40.17;;;11.60;;
24857;SDS011;12935;50.782;6.074;2022-09-09T05:08:06;20.03;;;8.83;;
24857;SDS011;12935;50.782;6.074;2022-09-09T05:10:35;29.50;;;10.03;;
24857;SDS011;12935;50.782;6.074;2022-09-09T05:13:02;25.03;;;9.40;;
24857;SDS011;12935;50.782;6.074;2022-09-09T05:15:27;28.20;;;9.60;;
24857;SDS011;12935;50.782;6.074;2022-09-09T05:17:56;27.03;;;9.77;;
24857;SDS011;12935;50.782;6.074;2022-09-09T05:20:23;25.43;;;9.63;;
24857;SDS011;12935;50.782;6.074;2022-09-09T05:22:52;27.87;;;9.27;;
24857;SDS011;12935;50.782;6.074;2022-09-09T05:25:18;32.27;;;9.73;;
24857;SDS011;12935;50.782;6.074;2022-09-09T05:27:44;35.97;;;10.13;;
24857;SDS011;12935;50.782;6.074;2022-09-09T05:30:09;43.67;;;11.50;;
24857;SDS011;12935;50.782;6.074;2022-09-09T05:32:35;28.20;;;9.97;;
24857;SDS011;12935;50.782;6.074;2022-09-09T05:35:01;34.07;;;9.67;;
24857;SDS011;12935;50.782;6.074;2022-09-09T05:37:26;31.03;;;9.77;;
24857;SDS011;12935;50.782;6.074;2022-09-09T05:39:51;35.30;;;10.17;;
24857;SDS011;12935;50.782;6.074;2022-09-09T05:42:18;55.40;;;11.90;;
24857;SDS011;12935;50.782;6.074;2022-09-09T05:44:43;25.67;;;9.17;;
24857;SDS011;12935;50.782;6.074;2022-09-09T05:47:09;41.97;;;10.70;;
24857;SDS011;12935;50.782;6.074;2022-09-09T05:49:35;19.87;;;9.23;;
24857;SDS011;12935;50.782;6.074;2022-09-09T05:52:00;25.07;;;8.93;;
24857;SDS011;12935;50.782;6.074;2022-09-09T05:54:28;27.93;;;10.20;;
24857;SDS011;12935;50.782;6.074;2022-09-09T05:56:53;23.90;;;9.20;;
24857;SDS011;12935;50.782;6.074;2022-09-09T05:59:19;35.37;;;10.17;;
24857;SDS011;12935;50.782;6.074;2022-09-09T06:01:44;36.33;;;10.50;;
24857;SDS011;12935;50.782;6.074;2022-09-09T06:04:10;44.90;;;10.60;;
24857;SDS011;12935;50.782;6.074;2022-09-09T06:06:36;20.53;;;9.40;;
24857;SDS011;12935;50.782;6.074;2022-09-09T06:09:04;27.60;;;9.17;;
24857;SDS011;12935;50.782;6.074;2022-09-09T06:11:35;31.07;;;9.80;;
24857;SDS011;12935;50.782;6.074;2022-09-09T06:14:02;21.13;;;8.73;;
24857;SDS011;12935;50.782;6.074;2022-09-09T06:16:28;28.03;;;9.57;;
24857;SDS011;12935;50.782;6.074;2022-09-09T06:18:55;21.03;;;8.60;;
24857;SDS011;12935;50.782;6.074;2022-09-09T06:21:22;45.93;;;11.43;;
24857;SDS011;12935;50.782;6.074;2022-09-09T06:23:48;23.17;;;8.80;;
24857;SDS011;12935;50.782;6.074;2022-09-09T06:26:16;28.70;;;9.67;;
24857;SDS011;12935;50.782;6.074;2022-09-09T06:28:43;39.63;;;11.30;;
24857;SDS011;12935;50.782;6.074;2022-09-09T06:31:11;42.27;;;11.00;;
24857;SDS011;12935;50.782;6.074;2022-09-09T06:33:38;39.87;;;12.03;;
24857;SDS011;12935;50.782;6.074;2022-09-09T06:36:06;20.13;;;9.10;;
24857;SDS011;12935;50.782;6.074;2022-09-09T06:38:34;49.30;;;12.00;;
24857;SDS011;12935;50.782;6.074;2022-09-09T06:41:00;25.13;;;9.13;;
24857;SDS011;12935;50.782;6.074;2022-09-09T06:43:26;58.30;;;12.70;;
24857;SDS011;12935;50.782;6.074;2022-09-09T06:45:53;36.47;;;10.60;;
24857;SDS011;12935;50.782;6.074;2022-09-09T06:48:26;70.13;;;13.37;;
24857;SDS011;12935;50.782;6.074;2022-09-09T06:51:02;27.57;;;9.80;;
24857;SDS011;12935;50.782;6.074;2022-09-09T06:53:38;27.63;;;10.07;;
24857;SDS011;12935;50.782;6.074;2022-09-09T06:58:42;26.83;;;9.80;;
24857;SDS011;12935;50.782;6.074;2022-09-09T07:01:09;31.67;;;10.20;;
24857;SDS011;12935;50.782;6.074;2022-09-09T07:03:39;24.50;;;9.33;;
24857;SDS011;12935;50.782;6.074;2022-09-09T07:06:05;24.97;;;9.70;;
24857;SDS011;12935;50.782;6.074;2022-09-09T07:08:32;47.57;;;12.10;;
24857;SDS011;12935;50.782;6.074;2022-09-09T07:11:04;26.60;;;9.70;;
24857;SDS011;12935;50.782;6.074;2022-09-09T07:13:31;43.57;;;10.83;;
24857;SDS011;12935;50.782;6.074;2022-09-09T07:16:03;46.80;;;10.87;;
24857;SDS011;12935;50.782;6.074;2022-09-09T07:18:39;42.60;;;11.87;;
24857;SDS011;12935;50.782;6.074;2022-09-09T07:21:06;35.93;;;10.87;;
24857;SDS011;12935;50.782;6.074;2022-09-09T07:23:31;34.20;;;11.47;;
24857;SDS011;12935;50.782;6.074;2022-09-09T07:25:57;22.10;;;9.40;;
24857;SDS011;12935;50.782;6.074;2022-09-09T07:28:24;30.93;;;10.90;;
24857;SDS011;12935;50.782;6.074;2022-09-09T07:30:58;31.53;;;11.43;;
24857;SDS011;12935;50.782;6.074;2022-09-09T07:33:27;54.37;;;12.90;;
24857;SDS011;12935;50.782;6.074;2022-09-09T07:35:53;30.50;;;11.00;;
24857;SDS011;12935;50.782;6.074;2022-09-09T07:38:19;20.03;;;9.90;;
24857;SDS011;12935;50.782;6.074;2022-09-09T07:40:45;28.20;;;10.70;;
24857;SDS011;12935;50.782;6.074;2022-09-09T07:43:11;23.57;;;10.13;;
24857;SDS011;12935;50.782;6.074;2022-09-09T07:45:36;26.93;;;11.20;;
24857;SDS011;12935;50.782;6.074;2022-09-09T07:48:02;37.40;;;10.90;;
24857;SDS011;12935;50.782;6.074;2022-09-09T07:50:27;35.90;;;10.23;;
24857;SDS011;12935;50.782;6.074;2022-09-09T07:52:53;48.43;;;11.53;;
24857;SDS011;12935;50.782;6.074;2022-09-09T07:55:19;28.67;;;10.50;;
24857;SDS011;12935;50.782;6.074;2022-09-09T07:57:50;30.47;;;11.73;;
24857;SDS011;12935;50.782;6.074;2022-09-09T08:00:16;39.10;;;11.70;;
24857;SDS011;12935;50.782;6.074;2022-09-09T08:02:41;30.53;;;10.57;;
24857;SDS011;12935;50.782;6.074;2022-09-09T08:05:06;24.53;;;10.80;;
24857;SDS011;12935;50.782;6.074;2022-09-09T08:07:32;23.10;;;10.00;;
24857;SDS011;12935;50.782;6.074;2022-09-09T08:09:57;58.10;;;13.43;;
24857;SDS011;12935;50.782;6.074;2022-09-09T08:12:23;83.60;;;17.23;;
24857;SDS011;12935;50.782;6.074;2022-09-09T08:14:48;38.70;;;12.30;;
24857;SDS011;12935;50.782;6.074;2022-09-09T08:17:13;33.47;;;11.70;;
24857;SDS011;12935;50.782;6.074;2022-09-09T08:19:39;32.90;;;11.40;;
24857;SDS011;12935;50.782;6.074;2022-09-09T08:22:04;26.97;;;10.90;;
24857;SDS011;12935;50.782;6.074;2022-09-09T08:24:30;30.77;;;11.63;;
24857;SDS011;12935;50.782;6.074;2022-09-09T08:26:55;35.20;;;11.67;;
24857;SDS011;12935;50.782;6.074;2022-09-09T08:29:21;40.87;;;12.83;;
24857;SDS011;12935;50.782;6.074;2022-09-09T08:31:49;43.17;;;12.70;;
24857;SDS011;12935;50.782;6.074;2022-09-09T08:34:16;59.07;;;13.80;;
24857;SDS011;12935;50.782;6.074;2022-09-09T08:36:44;49.53;;;13.57;;
24857;SDS011;12935;50.782;6.074;2022-09-09T08:39:12;26.53;;;10.80;;
24857;SDS011;12935;50.782;6.074;2022-09-09T08:44:42;29.20;;;11.20;;
24857;SDS011;12935;50.782;6.074;2022-09-09T08:55:47;46.33;;;13.40;;
24857;SDS011;12935;50.782;6.074;2022-09-09T09:03:28;37.77;;;13.33;;
24857;SDS011;12935;50.782;6.074;2022-09-09T09:06:19;23.73;;;11.33;;
24857;SDS011;12935;50.782;6.074;2022-09-09T09:11:54;47.03;;;12.77;;
24857;SDS011;12935;50.782;6.074;2022-09-09T09:14:25;26.70;;;11.57;;
24857;SDS011;12935;50.782;6.074;2022-09-09T09:16:55;26.30;;;11.43;;
24857;SDS011;12935;50.782;6.074;2022-09-09T09:19:23;33.47;;;12.23;;
24857;SDS011;12935;50.782;6.074;2022-09-09T09:27:30;55.23;;;15.33;;
24857;SDS011;12935;50.782;6.074;2022-09-09T09:29:56;41.83;;;13.43;;
24857;SDS011;12935;50.782;6.074;2022-09-09T09:32:24;58.50;;;16.00;;
24857;SDS011;12935;50.782;6.074;2022-09-09T09:34:54;25.90;;;13.13;;
24857;SDS011;12935;50.782;6.074;2022-09-09T09:37:26;39.13;;;14.17;;
24857;SDS011;12935;50.782;6.074;2022-09-09T09:39:53;25.70;;;13.27;;
24857;SDS011;12935;50.782;6.074;2022-09-09T09:42:19;63.03;;;16.27;;
24857;SDS011;12935;50.782;6.074;2022-09-09T09:44:44;29.27;;;12.77;;
24857;SDS011;12935;50.782;6.074;2022-09-09T09:47:14;40.10;;;14.33;;
24857;SDS011;12935;50.782;6.074;2022-09-09T09:49:56;26.73;;;13.20;;
24857;SDS011;12935;50.782;6.074;2022-09-09T09:52:25;89.37;;;19.83;;
24857;SDS011;12935;50.782;6.074;2022-09-09T09:54:53;27.93;;;13.07;;
24857;SDS011;12935;50.782;6.074;2022-09-09T09:57:24;26.43;;;12.63;;
24857;SDS011;12935;50.782;6.074;2022-09-09T10:00:14;29.67;;;12.87;;
24857;SDS011;12935;50.782;6.074;2022-09-09T10:02:42;23.40;;;12.43;;
24857;SDS011;12935;50.782;6.074;2022-09-09T10:07:45;28.60;;;12.30;;
24857;SDS011;12935;50.782;6.074;2022-09-09T10:13:05;29.80;;;12.90;;
24857;SDS011;12935;50.782;6.074;2022-09-09T10:15:42;58.43;;;14.27;;
24857;SDS011;12935;50.782;6.074;2022-09-09T10:18:32;27.07;;;11.50;;
24857;SDS011;12935;50.782;6.074;2022-09-09T10:23:42;33.63;;;13.13;;
24857;SDS011;12935;50.782;6.074;2022-09-09T10:33:59;28.57;;;12.13;;
24857;SDS011;12935;50.782;6.074;2022-09-09T10:36:48;30.13;;;12.53;;
24857;SDS011;12935;50.782;6.074;2022-09-09T10:44:44;32.67;;;12.90;;
24857;SDS011;12935;50.782;6.074;2022-09-09T10:50:13;41.80;;;14.37;;
24857;SDS011;12935;50.782;6.074;2022-09-09T10:55:35;40.63;;;13.43;;
24857;SDS011;12935;50.782;6.074;2022-09-09T10:58:05;27.27;;;11.13;;
24857;SDS011;12935;50.782;6.074;2022-09-09T11:00:42;54.87;;;13.57;;
24857;SDS011;12935;50.782;6.074;2022-09-09T11:03:29;31.57;;;12.00;;
24857;SDS011;12935;50.782;6.074;2022-09-09T11:06:04;33.90;;;11.90;;
24857;SDS011;12935;50.782;6.074;2022-09-09T11:08:32;25.63;;;11.27;;
24857;SDS011;12935;50.782;6.074;2022-09-09T11:11:04;17.40;;;10.50;;
24857;SDS011;12935;50.782;6.074;2022-09-09T11:16:36;40.13;;;14.17;;
24857;SDS011;12935;50.782;6.074;2022-09-09T11:21:40;31.20;;;12.77;;
24857;SDS011;12935;50.782;6.074;2022-09-09T11:24:13;35.20;;;13.13;;
24857;SDS011;12935;50.782;6.074;2022-09-09T11:32:17;45.43;;;14.87;;
24857;SDS011;12935;50.782;6.074;2022-09-09T11:41:04;37.30;;;12.67;;
24857;SDS011;12935;50.782;6.074;2022-09-09T11:46:03;19.80;;;10.97;;
24857;SDS011;12935;50.782;6.074;2022-09-09T11:54:25;33.23;;;11.40;;
24857;SDS011;12935;50.782;6.074;2022-09-09T11:56:55;37.67;;;12.80;;
24857;SDS011;12935;50.782;6.074;2022-09-09T11:59:29;38.50;;;14.03;;
24857;SDS011;12935;50.782;6.074;2022-09-09T12:01:57;40.10;;;13.73;;
24857;SDS011;12935;50.782;6.074;2022-09-09T12:09:18;22.73;;;11.53;;
24857;SDS011;12935;50.782;6.074;2022-09-09T12:11:48;56.70;;;15.90;;
24857;SDS011;12935;50.782;6.074;2022-09-09T12:14:34;21.80;;;12.00;;
24857;SDS011;12935;50.782;6.074;2022-09-09T12:19:35;33.70;;;12.93;;
24857;SDS011;12935;50.782;6.074;2022-09-09T12:22:03;33.97;;;14.70;;
24857;SDS011;12935;50.782;6.074;2022-09-09T12:27:26;18.57;;;12.50;;
24857;SDS011;12935;50.782;6.074;2022-09-09T12:32:24;108.63;;;21.67;;
24857;SDS011;12935;50.782;6.074;2022-09-09T12:40:22;21.83;;;12.73;;
24857;SDS011;12935;50.782;6.074;2022-09-09T12:42:49;34.93;;;13.93;;
24857;SDS011;12935;50.782;6.074;2022-09-09T12:45:19;31.13;;;13.67;;
24857;SDS011;12935;50.782;6.074;2022-09-09T12:47:50;21.33;;;13.40;;
24857;SDS011;12935;50.782;6.074;2022-09-09T12:50:23;24.20;;;12.63;;
24857;SDS011;12935;50.782;6.074;2022-09-09T12:52:51;23.20;;;12.00;;
24857;SDS011;12935;50.782;6.074;2022-09-09T12:55:24;43.23;;;14.40;;
24857;SDS011;12935;50.782;6.074;2022-09-09T12:57:55;29.20;;;12.07;;
24857;SDS011;12935;50.782;6.074;2022-09-09T13:00:21;25.03;;;12.87;;
24857;SDS011;12935;50.782;6.074;2022-09-09T13:02:50;23.47;;;12.43;;
24857;SDS011;12935;50.782;6.074;2022-09-09T13:05:27;30.73;;;13.53;;
24857;SDS011;12935;50.782;6.074;2022-09-09T13:08:05;26.77;;;13.47;;
24857;SDS011;12935;50.782;6.074;2022-09-09T13:10:55;28.53;;;14.57;;
24857;SDS011;12935;50.782;6.074;2022-09-09T13:13:33;39.77;;;15.43;;
24857;SDS011;12935;50.782;6.074;2022-09-09T13:16:01;32.07;;;14.80;;
24857;SDS011;12935;50.782;6.074;2022-09-09T13:18:30;34.40;;;16.07;;
24857;SDS011;12935;50.782;6.074;2022-09-09T13:20:59;24.37;;;15.10;;
24857;SDS011;12935;50.782;6.074;2022-09-09T13:23:34;37.23;;;16.90;;
24857;SDS011;12935;50.782;6.074;2022-09-09T13:26:03;30.10;;;15.47;;
24857;SDS011;12935;50.782;6.074;2022-09-09T13:28:31;36.27;;;16.07;;
24857;SDS011;12935;50.782;6.074;2022-09-09T13:33:31;25.93;;;14.73;;
24857;SDS011;12935;50.782;6.074;2022-09-09T13:36:02;28.27;;;15.07;;
24857;SDS011;12935;50.782;6.074;2022-09-09T13:38:29;40.93;;;14.90;;
24857;SDS011;12935;50.782;6.074;2022-09-09T13:41:01;34.87;;;15.33;;
24857;SDS011;12935;50.782;6.074;2022-09-09T13:43:53;25.43;;;15.60;;
24857;SDS011;12935;50.782;6.074;2022-09-09T13:51:34;40.13;;;19.27;;
24857;SDS011;12935;50.782;6.074;2022-09-09T13:54:01;31.50;;;17.27;;
24857;SDS011;12935;50.782;6.074;2022-09-09T13:56:27;25.23;;;17.37;;
24857;SDS011;12935;50.782;6.074;2022-09-09T13:58:52;26.80;;;18.40;;
24857;SDS011;12935;50.782;6.074;2022-09-09T14:01:17;31.13;;;17.07;;
24857;SDS011;12935;50.782;6.074;2022-09-09T14:03:43;36.50;;;18.40;;
24857;SDS011;12935;50.782;6.074;2022-09-09T14:06:09;35.43;;;19.40;;
24857;SDS011;12935;50.782;6.074;2022-09-09T14:08:36;29.53;;;18.33;;
24857;SDS011;12935;50.782;6.074;2022-09-09T14:11:05;30.23;;;19.27;;
24857;SDS011;12935;50.782;6.074;2022-09-09T14:13:30;38.27;;;18.97;;
24857;SDS011;12935;50.782;6.074;2022-09-09T14:15:56;32.07;;;18.00;;
24857;SDS011;12935;50.782;6.074;2022-09-09T14:18:21;36.10;;;19.67;;
24857;SDS011;12935;50.782;6.074;2022-09-09T14:20:48;30.77;;;18.53;;
24857;SDS011;12935;50.782;6.074;2022-09-09T14:23:15;55.03;;;20.70;;
24857;SDS011;12935;50.782;6.074;2022-09-09T14:25:41;24.20;;;16.67;;
24857;SDS011;12935;50.782;6.074;2022-09-09T14:28:08;26.00;;;16.43;;
24857;SDS011;12935;50.782;6.074;2022-09-09T14:30:36;25.80;;;16.50;;
24857;SDS011;12935;50.782;6.074;2022-09-09T14:33:02;40.70;;;16.50;;
24857;SDS011;12935;50.782;6.074;2022-09-09T14:35:28;37.33;;;17.33;;
24857;SDS011;12935;50.782;6.074;2022-09-09T14:37:53;46.13;;;17.60;;
24857;SDS011;12935;50.782;6.074;2022-09-09T14:40:20;30.90;;;16.23;;
24857;SDS011;12935;50.782;6.074;2022-09-09T14:42:45;24.53;;;14.30;;
24857;SDS011;12935;50.782;6.074;2022-09-09T14:45:10;33.57;;;16.80;;
24857;SDS011;12935;50.782;6.074;2022-09-09T14:47:36;33.73;;;15.10;;
24857;SDS011;12935;50.782;6.074;2022-09-09T14:50:03;43.47;;;16.40;;
24857;SDS011;12935;50.782;6.074;2022-09-09T14:52:30;47.10;;;16.53;;
24857;SDS011;12935;50.782;6.074;2022-09-09T14:54:55;35.20;;;15.27;;
24857;SDS011;12935;50.782;6.074;2022-09-09T14:57:21;30.50;;;14.50;;
24857;SDS011;12935;50.782;6.074;2022-09-09T14:59:46;38.30;;;15.37;;
24857;SDS011;12935;50.782;6.074;2022-09-09T15:02:11;51.73;;;17.63;;
24857;SDS011;12935;50.782;6.074;2022-09-09T15:04:38;26.17;;;13.30;;
24857;SDS011;12935;50.782;6.074;2022-09-09T15:07:04;37.63;;;15.13;;
24857;SDS011;12935;50.782;6.074;2022-09-09T15:09:29;18.97;;;12.23;;
24857;SDS011;12935;50.782;6.074;2022-09-09T15:11:55;45.63;;;16.20;;
24857;SDS011;12935;50.782;6.074;2022-09-09T15:14:20;29.13;;;13.23;;
24857;SDS011;12935;50.782;6.074;2022-09-09T15:16:45;26.83;;;13.63;;
24857;SDS011;12935;50.782;6.074;2022-09-09T15:19:11;27.77;;;12.73;;
24857;SDS011;12935;50.782;6.074;2022-09-09T15:21:36;33.70;;;14.27;;
24857;SDS011;12935;50.782;6.074;2022-09-09T15:24:03;65.43;;;16.13;;
24857;SDS011;12935;50.782;6.074;2022-09-09T15:26:29;39.03;;;14.23;;
24857;SDS011;12935;50.782;6.074;2022-09-09T15:28:55;31.47;;;13.50;;
24857;SDS011;12935;50.782;6.074;2022-09-09T15:31:26;34.90;;;13.70;;
24857;SDS011;12935;50.782;6.074;2022-09-09T15:33:57;27.43;;;12.50;;
24857;SDS011;12935;50.782;6.074;2022-09-09T15:36:31;34.70;;;13.67;;
24857;SDS011;12935;50.782;6.074;2022-09-09T15:39:01;29.37;;;12.20;;
24857;SDS011;12935;50.782;6.074;2022-09-09T15:41:28;49.57;;;14.60;;
24857;SDS011;12935;50.782;6.074;2022-09-09T15:43:54;37.90;;;14.50;;
24857;SDS011;12935;50.782;6.074;2022-09-09T15:46:44;23.60;;;12.07;;
24857;SDS011;12935;50.782;6.074;2022-09-09T15:49:14;30.27;;;13.50;;
24857;SDS011;12935;50.782;6.074;2022-09-09T15:51:45;32.50;;;13.43;;
24857;SDS011;12935;50.782;6.074;2022-09-09T15:54:22;30.80;;;13.70;;
24857;SDS011;12935;50.782;6.074;2022-09-09T15:56:56;31.00;;;13.17;;
24857;SDS011;12935;50.782;6.074;2022-09-09T15:59:24;20.83;;;12.40;;
24857;SDS011;12935;50.782;6.074;2022-09-09T16:01:50;35.23;;;13.53;;
24857;SDS011;12935;50.782;6.074;2022-09-09T16:04:16;38.43;;;13.33;;
24857;SDS011;12935;50.782;6.074;2022-09-09T16:06:48;27.57;;;12.43;;
24857;SDS011;12935;50.782;6.074;2022-09-09T16:09:15;30.90;;;12.47;;
24857;SDS011;12935;50.782;6.074;2022-09-09T16:11:40;37.63;;;13.40;;
24857;SDS011;12935;50.782;6.074;2022-09-09T16:14:06;18.73;;;11.27;;
24857;SDS011;12935;50.782;6.074;2022-09-09T16:16:31;42.43;;;14.70;;
24857;SDS011;12935;50.782;6.074;2022-09-09T16:18:58;29.00;;;12.40;;
24857;SDS011;12935;50.782;6.074;2022-09-09T16:21:28;39.63;;;13.23;;
24857;SDS011;12935;50.782;6.074;2022-09-09T16:23:56;27.40;;;12.10;;
24857;SDS011;12935;50.782;6.074;2022-09-09T16:26:24;25.03;;;11.57;;
24857;SDS011;12935;50.782;6.074;2022-09-09T16:28:50;26.10;;;11.70;;
24857;SDS011;12935;50.782;6.074;2022-09-09T16:31:16;32.97;;;11.80;;
24857;SDS011;12935;50.782;6.074;2022-09-09T16:33:45;34.90;;;12.43;;
24857;SDS011;12935;50.782;6.074;2022-09-09T16:36:15;25.87;;;11.50;;
24857;SDS011;12935;50.782;6.074;2022-09-09T16:38:42;49.67;;;13.83;;
24857;SDS011;12935;50.782;6.074;2022-09-09T16:41:08;36.63;;;12.23;;
24857;SDS011;12935;50.782;6.074;2022-09-09T16:43:35;26.87;;;11.73;;
24857;SDS011;12935;50.782;6.074;2022-09-09T16:46:17;25.97;;;11.73;;
24857;SDS011;12935;50.782;6.074;2022-09-09T16:48:44;49.90;;;14.00;;
24857;SDS011;12935;50.782;6.074;2022-09-09T16:51:15;25.67;;;11.07;;
24857;SDS011;12935;50.782;6.074;2022-09-09T16:53:40;41.83;;;12.43;;
24857;SDS011;12935;50.782;6.074;2022-09-09T16:56:13;47.60;;;14.37;;